NY/NJ Local METAR Reports

 

KNYC - NYC/Central Park, NY, USA
Distance from Hoboken: NE 4mi, 7km
Updated: 09/24/2017 7:51am
Clear
Clear
 Wind from calm
Wind: Calm
Temperature: 72°F , 22°C
Dew Point: 63°F , 17°C
Humidity: 73%
Barometer: 30.11 inHg , 1019.6 hPa
Clouds: Clear
Visibility: 10 miles , 16 km
2017/09/24 11:51 KNYC 241151Z AUTO 00000KT 10SM CLR 22/17 A3011 RMK AO2 SLP186 T02170167 10222 20206 53010
KEWR - Newark, NJ, USA
Distance from Hoboken: WSW 8mi, 13km
Updated: 09/24/2017 7:51am
Clear
Clear
 Wind from calm
Wind: Calm
Temperature: 72°F , 22°C
Dew Point: 61°F , 16°C
Humidity: 69%
Barometer: 30.08 inHg , 1018.6 hPa
Clouds: Clear
Visibility: 10 miles , 16 km
2017/09/24 11:51 KEWR 241151Z 00000KT 10SM CLR 22/16 A3008 RMK AO2 SLP186 T02220156 10228 20183 53011 $
 
KLGA - NYC/La Guardia, NY, USA
Distance from Hoboken: ENE 8mi, 13km
Updated: 09/24/2017 7:51am
Clear
Clear
 Wind from NNE
Wind: NNE 3 mph , 6 km/h
Temperature: 73°F , 23°C
Dew Point: 61°F , 16°C
Humidity: 65%
Barometer: 30.07 inHg , 1018.3 hPa
Clouds: Clear
Visibility: 10 miles , 16 km
2017/09/24 11:51 KLGA 241151Z 02003KT 10SM CLR 23/16 A3007 RMK AO2 SLP183 T02280161 10228 20217 53010
KTEB - Teterboro, NJ, USA
Distance from Hoboken: N 9mi, 14km
Updated: 09/24/2017 7:51am
Clear
Clear
 Wind from calm
Wind: Calm
Temperature: 70°F , 21°C
Dew Point: 61°F , 16°C
Humidity: 73%
Barometer: 30.08 inHg , 1018.6 hPa
Clouds: Clear
Visibility: 10 miles , 16 km
2017/09/24 11:51 KTEB 241151Z 00000KT 10SM CLR 21/16 A3008 RMK AO2 SLP184 T02060156 10217 20183 53010
 
KJFK - NYC/Jfk Arpt, NY, USA
Distance from Hoboken: ESE 16mi, 25km
Updated: 09/24/2017 7:51am
Clear
Clear
 Wind from N
Wind: N 8 mph , 13 km/h
Temperature: 73°F , 23°C
Dew Point: 61°F , 16°C
Humidity: 65%
Barometer: 30.08 inHg , 1018.6 hPa
Clouds: Clear
Visibility: 10 miles , 16 km
2017/09/24 11:51 KJFK 241151Z 36007KT 10SM CLR 23/16 A3008 RMK AO2 SLP186 T02280156 10228 20183 53008
KCDW - Caldwell, NJ, USA
Distance from Hoboken: NW 16mi, 26km
Updated: 09/24/2017 7:53am
Clear
Clear
 Wind from calm
Wind: Calm
Temperature: 64°F , 18°C
Dew Point: 63°F , 17°C
Humidity: 94%
Barometer: 30.10 inHg , 1019.3 hPa
Clouds: Clear
Visibility: 10 miles , 16 km
2017/09/24 11:53 KCDW 241153Z 00000KT 10SM CLR 18/17 A3010 RMK AO2 RAB07E15 SLP197 P0000 60000 T01830167 10183 20161 53010
 
KMMU - Morristown Muni, NJ, USA
Distance from Hoboken: W 20mi, 33km
Updated: 09/24/2017 7:45am
Clear
Clear
 Wind from calm
Wind: Calm
Temperature: 61°F , 16°C
Dew Point: 61°F , 16°C
Humidity: 100%
Barometer: 30.10 inHg , 1019.3 hPa
Clouds: Clear
Visibility: 10 miles , 16 km
2017/09/24 11:45 KMMU 241145Z 00000KT 10SM SKC 16/16 A3010
KHPN - White Plains, NY, USA
Distance from Hoboken: NE 28mi, 46km
Updated: 09/24/2017 7:56am
Clear
Clear
 Wind from N
Wind: N 9 mph , 15 km/h
Temperature: 73°F , 23°C
Dew Point: 61°F , 16°C
Humidity: 65%
Barometer: 30.09 inHg , 1019 hPa
Clouds: Clear
Visibility: 10 miles , 16 km
2017/09/24 11:56 KHPN 241156Z 35008KT 10SM CLR 23/16 A3009 RMK AO2 SLP183 T02280156 10228 20194 53010
 
KFRG - Farmingdale, NY, USA
Distance from Hoboken: E 32mi, 52km
Updated: 09/24/2017 7:53am
Clear
Clear
 Wind from N
Wind: N 9 mph , 15 km/h
Temperature: 70°F , 21°C
Dew Point: 61°F , 16°C
Humidity: 73%
Barometer: 30.07 inHg , 1018.3 hPa
Clouds: Clear
Visibility: 10 miles , 16 km
2017/09/24 11:53 KFRG 241153Z AUTO 01008KT 10SM CLR 21/16 A3007 RMK AO2 SLP182 T02110161 10211 20172 53008
KSMQ - Somerville, NJ, USA
Distance from Hoboken: WSW 34mi, 55km
Updated: 09/06/2017 9:01am
NOT Current
Overcast
Overcast
 Wind from N
Wind: N 9 mph , 15 km/h, Gust: 17 mph , 28 km/h
Temperature: 64°F , 18°C
Dew Point: 61°F , 16°C
Humidity: 88%
Barometer: 29.87 inHg , 1011.5 hPa
Clouds: Overcast
Visibility: 7 miles , 11 km
Cloud details: Partly cloudy 1200 ft
Overcast 2500 ft
2017/09/06 13:01 KSMQ 061301Z AUTO 35008G15KT 7SM SCT012 OVC025 18/16 A2987 RMK AO2 PRESRR T01780161
 
KBLM - Belmar/Farmdale, NJ, USA
Distance from Hoboken: S 40mi, 64km
Updated: 09/24/2017 7:56am
Clear
Clear
 Wind from WNW
Wind: WNW 5 mph , 7 km/h
Temperature: 66°F , 19°C
Dew Point: 59°F , 15°C
Humidity: 78%
Barometer: 30.09 inHg , 1019 hPa
Clouds: Clear
Visibility: 10 miles , 16 km
2017/09/24 11:56 KBLM 241156Z AUTO 30004KT 10SM CLR 19/15 A3009 RMK AO2 SLP193 6//// 7//// T01940150 10194 20167 53012
K12N - Andover, NJ, USA
Distance from Hoboken: WNW 41mi, 67km
Updated: 09/24/2017 7:54am

 Wind from calm
Wind: Calm
Temperature: 61°F , 16°C
Dew Point: 61°F , 16°C
Humidity: 100%
Barometer: 30.13 inHg , 1020.3 hPa
2017/09/24 11:54 K12N 241154Z AUTO 00000KT 16/16 A3013 RMK AO1 SLP200 T01610156 10161 20150 53011
 
KFWN - Sussex, NJ, USA
Distance from Hoboken: NW 45mi, 72km
Updated: 09/24/2017 7:53am
Clear
Clear
 Wind from calm
Wind: Calm
Temperature: 61°F , 16°C
Dew Point: 61°F , 16°C
Humidity: 100%
Barometer: 30.13 inHg , 1020.3 hPa
Clouds: Clear
Visibility: 10 miles , 16 km
2017/09/24 11:53 KFWN 241153Z AUTO 00000KT 10SM CLR 16/16 A3013 RMK AO2 SLP200 T01560156 10161 20139 53011
KISP - Islip, NY, USA
Distance from Hoboken: E 49mi, 79km
Updated: 09/24/2017 7:56am
Clear
Clear
 Wind from N
Wind: N 6 mph , 9 km/h
Temperature: 70°F , 21°C
Dew Point: 64°F , 18°C
Humidity: 83%
Barometer: 30.07 inHg , 1018.3 hPa
Clouds: Clear
Visibility: 10 miles , 16 km
2017/09/24 11:56 KISP 241156Z 36005KT 10SM CLR 21/18 A3007 RMK AO2 SLP181 T02060183 10206 20167 53009